Time;durP1;ratioP1;P1;durP2;ratioP2;P2;SDS_P1;SDS_P2;PMS_P1;PMS_P2;Temp;Humidity;BMP_temperature;BMP_pressure;BME280_temperature;BME280_humidity;BME280_pressure;Samples;Min_cycle;Max_cycle;Signal;HPM_P1;HPM_P2
2022/05/03 00:01:13;;;;;;;17.63;14.32;;;;;;;9.99;nan;100292.78;5014931;28;20045;-70
2022/05/03 00:04:10;;;;;;;17.10;13.55;;;;;;;9.99;nan;100291.97;4986327;28;20080;-69
2022/05/03 00:07:12;;;;;;;18.55;13.77;;;;;;;9.98;nan;100287.63;4999893;28;20092;-70
2022/05/03 00:10:04;;;;;;;16.65;13.73;;;;;;;9.99;nan;100289.31;5015090;28;20056;-69
2022/05/03 00:13:02;;;;;;;16.65;13.50;;;;;;;9.98;nan;100284.97;4999545;28;20064;-70
2022/05/03 00:15:47;;;;;;;17.92;13.93;;;;;;;10.02;nan;100286.34;5014700;28;20045;-70
2022/05/03 00:18:33;;;;;;;16.35;13.63;;;;;;;10.14;nan;100280.78;4999685;28;20131;-70
2022/05/03 00:21:17;;;;;;;19.25;15.05;;;;;;;9.96;nan;100277.09;5014217;28;20516;-70
2022/05/03 00:24:02;;;;;;;19.70;14.13;;;;;;;9.96;nan;100273.56;4999550;28;20064;-69
2022/05/03 00:26:46;;;;;;;19.15;14.18;;;;;;;9.85;nan;100281.72;4999580;28;20048;-70
2022/05/03 00:29:32;;;;;;;16.70;13.20;;;;;;;9.89;nan;100269.81;4999341;28;20048;-69
2022/05/03 00:32:16;;;;;;;16.85;13.68;;;;;;;9.91;nan;100273.19;4999376;28;20049;-70
2022/05/03 00:35:00;;;;;;;19.92;15.00;;;;;;;9.88;nan;100274.28;4999033;28;20060;-70
2022/05/03 00:37:44;;;;;;;18.30;13.93;;;;;;;9.90;nan;100260.84;4998950;28;20080;-70
2022/05/03 00:40:29;;;;;;;17.25;13.50;;;;;;;9.77;nan;100268.28;5014340;28;20072;-70
2022/05/03 00:43:30;;;;;;;19.42;14.32;;;;;;;9.70;nan;100269.78;4999202;28;20487;-70
2022/05/03 00:46:17;;;;;;;18.02;13.90;;;;;;;9.70;nan;100259.97;5013902;28;20125;-69
2022/05/03 00:49:42;;;;;;;17.17;14.75;;;;;;;9.70;nan;100262.63;4999156;28;20129;-69
2022/05/03 00:52:47;;;;;;;17.95;13.73;;;;;;;9.71;nan;100272.34;5014015;28;20504;-70
2022/05/03 00:55:37;;;;;;;;;;;;;;;9.63;nan;100274.84;4999393;28;20045;-70
2022/05/03 00:58:41;;;;;;;17.10;14.07;;;;;;;9.67;nan;100267.41;4999109;28;19924;-70
2022/05/03 01:01:41;;;;;;;18.20;14.63;;;;;;;9.79;nan;100268.97;4983777;28;20045;-70
2022/05/03 01:05:01;;;;;;;16.08;12.93;;;;;;;9.86;nan;100264.75;5013883;28;20041;-70
2022/05/03 01:07:58;;;;;;;20.27;13.77;;;;;;;9.81;nan;100264.34;4980832;28;20076;-70
2022/05/03 01:10:49;;;;;;;16.85;13.63;;;;;;;9.76;nan;100258.56;4985489;28;20520;-70
2022/05/03 01:13:36;;;;;;;16.98;14.07;;;;;;;9.78;nan;100256.66;4998835;28;20099;-69
2022/05/03 01:16:53;;;;;;;20.13;14.13;;;;;;;9.82;nan;100256.22;4998647;28;20076;-69
2022/05/03 01:19:45;;;;;;;16.88;12.55;;;;;;;9.78;nan;100262.78;4987185;28;20108;-70
2022/05/03 01:23:08;;;;;;;19.67;13.15;;;;;;;9.61;nan;100254.66;5013569;28;20053;-70
2022/05/03 01:26:12;;;;;;;18.98;14.15;;;;;;;9.51;nan;100254.66;4939812;29;20089;-70
2022/05/03 01:29:14;;;;;;;17.48;14.18;;;;;;;9.48;nan;100252.25;4998823;28;20497;-70
2022/05/03 01:32:00;;;;;;;18.38;13.85;;;;;;;9.49;nan;100255.75;5014839;28;20080;-70
2022/05/03 01:34:46;;;;;;;16.73;13.95;;;;;;;9.51;nan;100261.78;4988528;28;20052;-70
2022/05/03 01:37:43;;;;;;;16.13;13.25;;;;;;;9.48;nan;100260.22;5002575;28;20053;-70
2022/05/03 01:40:50;;;;;;;18.25;13.50;;;;;;;9.46;nan;100261.38;5017086;28;20048;-70
2022/05/03 01:43:56;;;;;;;16.95;13.68;;;;;;;9.37;nan;100263.00;5002605;28;20048;-69
2022/05/03 01:46:40;;;;;;;17.05;13.65;;;;;;;9.31;nan;100260.91;5002330;28;20045;-69
2022/05/03 01:52:55;;;;;;;20.65;14.20;;;;;;;9.29;nan;100260.19;5004951;28;20065;-69
2022/05/03 01:56:10;;;;;;;18.48;13.45;;;;;;;9.11;nan;100260.97;5053007;22;20108;-70
2022/05/03 01:59:20;;;;;;;26.33;13.40;;;;;;;9.00;nan;100263.75;5016725;28;20044;-70
2022/05/03 02:02:26;;;;;;;19.63;14.63;;;;;;;9.07;nan;100256.91;5002040;28;20099;-71
2022/05/03 02:05:41;;;;;;;18.42;14.77;;;;;;;9.11;nan;100261.84;5001649;28;20501;-70
2022/05/03 02:08:33;;;;;;;20.40;14.80;;;;;;;9.08;nan;100258.59;5017050;28;20045;-71
2022/05/03 02:11:46;;;;;;;17.55;13.95;;;;;;;9.02;nan;100256.47;4987947;28;20071;-70
2022/05/03 02:14:46;;;;;;;18.48;14.52;;;;;;;9.03;nan;100258.16;5016369;28;20041;-70
2022/05/03 02:17:52;;;;;;;18.80;15.05;;;;;;;9.00;nan;100248.66;5003025;28;20092;-71
2022/05/03 02:20:55;;;;;;;19.77;14.95;;;;;;;8.93;nan;100263.44;5001699;28;20048;-70
2022/05/03 02:24:11;;;;;;;18.90;14.18;;;;;;;8.97;nan;100259.53;5016465;28;20044;-70
2022/05/03 02:27:05;;;;;;;17.77;14.02;;;;;;;9.00;nan;100255.78;5009271;28;20045;-70
2022/05/03 02:29:50;;;;;;;17.98;14.60;;;;;;;8.92;nan;100251.13;5001343;28;20099;-70
2022/05/03 02:32:45;;;;;;;19.67;14.63;;;;;;;8.93;nan;100257.28;5001782;28;20111;-70
2022/05/03 02:35:31;;;;;;;;;;;;;;;8.91;nan;100265.41;5001812;28;20469;-71
2022/05/03 02:38:20;;;;;;;19.25;14.00;;;;;;;8.82;nan;100255.56;5001163;28;19924;-70
2022/05/03 02:41:06;;;;;;;18.05;14.27;;;;;;;8.74;nan;100257.19;5001602;28;20080;-70
2022/05/03 02:43:50;;;;;;;18.98;14.70;;;;;;;8.71;nan;100257.47;4986876;28;20049;-70
2022/05/03 02:46:52;;;;;;;18.17;14.95;;;;;;;8.71;nan;100258.31;5001040;28;20057;-70
2022/05/03 02:49:51;;;;;;;16.13;13.45;;;;;;;8.67;nan;100258.72;5015747;28;20108;-71
2022/05/03 02:52:57;;;;;;;17.23;14.50;;;;;;;8.57;nan;100255.16;5001132;28;20517;-71
2022/05/03 02:55:54;;;;;;;20.13;16.33;;;;;;;8.40;nan;100258.41;5015783;28;20127;-71
2022/05/03 02:58:45;;;;;;;17.65;14.65;;;;;;;8.37;nan;100256.03;5000966;28;20112;-70
2022/05/03 03:01:47;;;;;;;19.98;16.05;;;;;;;8.41;nan;100255.63;5000738;28;20521;-70
2022/05/03 03:04:36;;;;;;;20.08;15.25;;;;;;;8.46;nan;100263.22;4987510;28;20100;-71
2022/05/03 03:07:20;;;;;;;17.23;13.43;;;;;;;8.50;nan;100256.66;5000756;28;20414;-70
2022/05/03 03:10:05;;;;;;;16.83;14.10;;;;;;;8.45;nan;100266.84;5000684;28;20600;-70
2022/05/03 03:13:15;;;;;;;18.73;14.88;;;;;;;8.43;nan;100260.78;5000765;28;20509;-71
2022/05/03 03:15:58;;;;;;;18.75;14.88;;;;;;;8.40;nan;100266.38;5000369;28;20445;-70
2022/05/03 03:18:46;;;;;;;19.85;15.57;;;;;;;8.37;nan;100267.47;5000554;28;20088;-70
2022/05/03 03:21:34;;;;;;;18.20;15.57;;;;;;;8.32;nan;100274.16;5000666;28;20084;-70
2022/05/03 03:24:20;;;;;;;22.13;15.43;;;;;;;8.38;nan;100268.34;5000728;28;20103;-71
2022/05/03 03:27:05;;;;;;;19.90;15.13;;;;;;;8.38;nan;100263.88;4986675;28;20049;-70
2022/05/03 03:29:52;;;;;;;21.20;15.68;;;;;;;8.31;nan;100259.19;5015253;28;20064;-70
2022/05/03 03:32:40;;;;;;;18.70;15.25;;;;;;;8.26;nan;100267.53;5000759;28;20048;-70
2022/05/03 03:35:25;;;;;;;18.92;15.70;;;;;;;8.28;nan;100270.09;5015067;28;20441;-71
2022/05/03 03:38:10;;;;;;;24.33;16.67;;;;;;;8.28;nan;100264.75;5000195;28;20092;-70
2022/05/03 03:40:56;;;;;;;17.88;14.75;;;;;;;8.16;nan;100266.59;4986378;28;20421;-70
2022/05/03 03:43:40;;;;;;;18.35;15.43;;;;;;;8.17;nan;100259.50;5000024;28;20049;-70
2022/05/03 03:46:24;;;;;;;19.38;15.68;;;;;;;8.14;nan;100257.09;4999978;28;20409;-70
2022/05/03 03:49:08;;;;;;;21.23;15.40;;;;;;;8.07;nan;100255.94;5000094;28;20053;-70
2022/05/03 03:51:52;;;;;;;19.58;15.43;;;;;;;8.07;nan;100261.22;4999980;28;20045;-70
2022/05/03 03:54:39;;;;;;;19.98;15.50;;;;;;;8.11;nan;100262.66;4998619;28;20509;-70
2022/05/03 03:57:24;;;;;;;22.60;15.88;;;;;;;8.06;nan;100268.34;4999951;28;20560;-71
2022/05/03 04:00:12;;;;;;;21.70;15.07;;;;;;;8.17;nan;100265.63;4999680;28;20081;-71
2022/05/03 04:02:57;;;;;;;19.55;14.65;;;;;;;8.22;nan;100273.25;4999808;28;20057;-70
2022/05/03 04:05:41;;;;;;;21.70;15.68;;;;;;;8.20;nan;100268.09;4999466;28;20520;-70
2022/05/03 04:08:25;;;;;;;19.08;16.27;;;;;;;8.26;nan;100269.38;4999622;28;20049;-71
2022/05/03 04:11:14;;;;;;;18.27;14.65;;;;;;;8.38;nan;100265.69;4999373;28;20052;-70
2022/05/03 04:13:58;;;;;;;19.38;14.90;;;;;;;8.49;nan;100268.25;4999862;28;20072;-71
2022/05/03 04:16:42;;;;;;;17.05;14.57;;;;;;;8.47;nan;100265.72;4985795;28;20077;-70
2022/05/03 04:19:26;;;;;;;20.13;15.80;;;;;;;8.61;nan;100275.16;5014147;28;20461;-70
2022/05/03 04:22:31;;;;;;;17.75;14.77;;;;;;;8.67;nan;100279.97;4985454;28;20076;-71
2022/05/03 04:25:15;;;;;;;17.70;14.18;;;;;;;8.73;nan;100271.44;5014329;28;20461;-70
2022/05/03 04:27:59;;;;;;;18.23;14.40;;;;;;;8.79;nan;100273.59;4999317;28;20192;-70
2022/05/03 04:30:43;;;;;;;20.00;14.65;;;;;;;8.83;nan;100277.66;5013971;28;20430;-70
2022/05/03 04:33:27;;;;;;;19.05;15.43;;;;;;;8.92;nan;100276.84;5013898;28;20468;-70
2022/05/03 04:36:11;;;;;;;15.82;13.45;;;;;;;9.01;nan;100278.72;4999266;28;20096;-70
2022/05/03 04:39:01;;;;;;;24.63;14.48;;;;;;;9.08;nan;100271.91;5014079;28;20048;-70
2022/05/03 04:41:45;;;;;;;17.90;14.32;;;;;;;9.02;nan;100275.94;4999175;28;20096;-70
2022/05/03 04:44:29;;;;;;;23.80;14.35;;;;;;;9.06;nan;100280.00;4985272;28;20073;-70
2022/05/03 04:47:13;;;;;;;21.08;15.30;;;;;;;9.12;nan;100286.59;4999051;28;20053;-70
2022/05/03 04:49:57;;;;;;;19.45;15.18;;;;;;;9.13;nan;100285.63;5013981;28;20539;-70
2022/05/03 04:52:41;;;;;;;18.83;14.82;;;;;;;9.14;nan;100281.97;5013661;28;20565;-70
2022/05/03 04:55:25;;;;;;;24.13;15.75;;;;;;;9.11;nan;100292.91;4998745;28;20141;-70
2022/05/03 04:58:09;;;;;;;19.90;15.48;;;;;;;9.12;nan;100290.13;4998979;28;20121;-70
2022/05/03 05:00:53;;;;;;;21.00;16.08;;;;;;;9.11;nan;100291.09;4998900;28;20056;-70
2022/05/03 05:03:37;;;;;;;18.90;14.68;;;;;;;9.14;nan;100292.63;4998723;28;20056;-70
2022/05/03 05:06:21;;;;;;;19.20;14.10;;;;;;;9.23;nan;100305.13;4998644;28;20461;-70
2022/05/03 05:09:05;;;;;;;18.35;15.75;;;;;;;9.17;nan;100295.84;4999106;28;20129;-70
2022/05/03 05:11:49;;;;;;;19.40;14.38;;;;;;;9.25;nan;100305.81;4998758;28;20072;-70
2022/05/03 05:14:33;;;;;;;18.67;14.95;;;;;;;9.31;nan;100303.47;5013372;28;20060;-70
2022/05/03 05:17:17;;;;;;;17.45;14.77;;;;;;;9.42;nan;100303.38;5013426;28;20473;-70
2022/05/03 05:20:01;;;;;;;17.90;15.07;;;;;;;9.50;nan;100300.03;4999028;28;20096;-70
2022/05/03 05:22:45;;;;;;;19.45;14.50;;;;;;;9.56;nan;100310.97;5013346;28;20049;-70
2022/05/03 05:25:29;;;;;;;18.70;15.27;;;;;;;9.62;nan;100312.22;4998396;28;20103;-71
2022/05/03 05:28:14;;;;;;;17.27;14.68;;;;;;;9.72;nan;100315.75;4998374;28;20169;-70
2022/05/03 05:30:58;;;;;;;21.70;15.52;;;;;;;9.78;nan;100316.03;4998770;28;20461;-70
2022/05/03 05:33:42;;;;;;;21.27;15.95;;;;;;;9.89;nan;100315.09;5013145;28;20057;-70
2022/05/03 05:36:27;;;;;;;20.85;16.63;;;;;;;10.01;nan;100319.28;5013500;28;20053;-70
2022/05/03 05:39:11;;;;;;;18.63;16.00;;;;;;;10.11;nan;100322.84;5013209;28;20045;-70
2022/05/03 05:41:56;;;;;;;;;;;;;;;10.18;nan;100318.63;5013559;28;20053;-71
2022/05/03 05:44:39;;;;;;;21.52;17.08;;;;;;;10.27;nan;100329.28;4998387;28;19920;-70
2022/05/03 05:47:24;;;;;;;22.60;17.35;;;;;;;10.39;nan;100330.81;4998226;28;20053;-70
2022/05/03 05:50:09;;;;;;;25.35;17.60;;;;;;;10.54;nan;100332.06;4998556;28;20551;-70
2022/05/03 05:55:55;;;;;;;25.90;21.63;;;;;;;10.80;nan;100322.47;5012859;28;20124;-70
2022/05/03 05:58:40;;;;;;;29.38;20.30;;;;;;;10.97;nan;100329.72;4998421;28;20040;-70
2022/05/03 06:01:25;;;;;;;28.05;21.08;;;;;;;11.08;nan;100326.88;4998379;28;20049;-70
2022/05/03 06:04:09;;;;;;;31.50;20.77;;;;;;;11.22;nan;100327.25;4998564;28;20057;-70
2022/05/03 06:06:56;;;;;;;28.48;21.25;;;;;;;11.42;nan;100325.31;5012848;28;20092;-70
2022/05/03 06:09:39;;;;;;;26.48;21.10;;;;;;;11.62;nan;100329.59;5012912;28;20104;-70
2022/05/03 06:12:23;;;;;;;24.30;19.38;;;;;;;11.78;nan;100321.78;4984501;28;20056;-71
2022/05/03 06:15:08;;;;;;;23.58;18.50;;;;;;;11.90;nan;100326.72;5013034;28;20044;-70
2022/05/03 06:17:52;;;;;;;25.77;19.35;;;;;;;12.05;nan;100327.91;5014015;28;20600;-71
2022/05/03 06:20:36;;;;;;;27.73;19.23;;;;;;;12.16;nan;100311.66;5016673;28;20107;-71
2022/05/03 06:23:20;;;;;;;26.95;19.63;;;;;;;12.29;nan;100314.75;5001492;28;20049;-70
2022/05/03 06:26:05;;;;;;;26.55;17.60;;;;;;;12.39;nan;100304.81;5016171;28;20064;-71
2022/05/03 06:28:49;;;;;;;25.92;17.95;;;;;;;12.50;nan;100315.28;5016410;28;20548;-70
2022/05/03 06:31:33;;;;;;;21.17;16.98;;;;;;;12.61;nan;100316.88;5001699;28;20084;-71
2022/05/03 06:34:17;;;;;;;24.13;17.20;;;;;;;12.71;nan;100312.25;4987620;28;20196;-70
2022/05/03 06:37:01;;;;;;;19.50;16.73;;;;;;;12.86;nan;100319.56;5016639;28;20092;-71
2022/05/03 06:39:45;;;;;;;19.50;16.50;;;;;;;12.94;nan;100317.78;4987621;28;20048;-71
2022/05/03 06:42:29;;;;;;;22.17;16.63;;;;;;;13.06;nan;100329.09;5001363;28;20053;-71
2022/05/03 06:45:13;;;;;;;20.42;16.50;;;;;;;13.18;nan;100322.44;5000995;28;20103;-71
2022/05/03 06:47:57;;;;;;;22.17;15.82;;;;;;;13.27;nan;100326.84;5015914;28;20052;-70
2022/05/03 06:50:41;;;;;;;28.80;15.60;;;;;;;13.35;nan;100322.38;5015838;28;20052;-71
2022/05/03 06:53:25;;;;;;;18.50;15.45;;;;;;;13.47;nan;100329.09;5015993;28;20107;-70
2022/05/03 06:56:09;;;;;;;21.67;17.15;;;;;;;13.60;nan;100329.53;5001119;28;20096;-70
2022/05/03 06:58:53;;;;;;;20.75;15.30;;;;;;;13.74;nan;100330.72;5015750;28;20513;-70
2022/05/03 07:01:37;;;;;;;22.45;16.05;;;;;;;13.88;nan;100322.06;5001034;28;20081;-71
2022/05/03 07:04:21;;;;;;;19.85;16.02;;;;;;;14.13;nan;100331.81;5000834;28;20099;-70
2022/05/03 07:07:05;;;;;;;22.85;16.23;;;;;;;14.28;nan;100333.72;5000789;28;20053;-71
2022/05/03 07:09:49;;;;;;;19.67;16.00;;;;;;;14.39;nan;100337.94;5015957;28;20410;-70
2022/05/03 07:12:33;;;;;;;18.75;15.38;;;;;;;14.39;nan;100337.94;5000513;28;20052;-71
2022/05/03 07:15:18;;;;;;;20.60;16.38;;;;;;;14.50;nan;100341.09;5015525;28;20512;-71
2022/05/03 07:24:07;;;;;;;23.83;15.63;;;;;;;14.70;nan;100344.31;5003136;28;20100;-70
2022/05/03 07:26:51;;;;;;;21.55;15.35;;;;;;;14.81;nan;100343.97;4986641;28;20104;-71
2022/05/03 07:29:35;;;;;;;21.00;14.68;;;;;;;14.94;nan;100344.25;5015219;28;20052;-71
2022/05/03 07:32:20;;;;;;;19.33;15.07;;;;;;;15.11;nan;100344.06;5000728;28;20559;-71
2022/05/03 07:35:04;;;;;;;22.65;15.13;;;;;;;15.37;nan;100349.22;5014855;28;20069;-71
2022/05/03 07:37:50;;;;;;;17.85;14.50;;;;;;;15.50;nan;100341.47;5014950;28;20130;-70
2022/05/03 07:40:34;;;;;;;25.10;15.30;;;;;;;15.68;nan;100346.41;5000208;28;20457;-71
2022/05/03 07:43:18;;;;;;;19.15;14.57;;;;;;;15.81;nan;100346.72;5000418;28;20394;-71
2022/05/03 07:46:02;;;;;;;17.13;14.38;;;;;;;16.07;nan;100349.09;5014445;28;20048;-70
2022/05/03 07:48:46;;;;;;;15.23;13.45;;;;;;;16.28;nan;100341.22;5014328;28;20045;-71
2022/05/03 07:51:30;;;;;;;15.13;13.45;;;;;;;16.30;nan;100341.88;5000337;28;20145;-71
2022/05/03 07:54:15;;;;;;;21.95;13.52;;;;;;;16.40;nan;100343.31;5037782;22;20132;-70
2022/05/03 07:56:59;;;;;;;;;;;;;;;16.52;nan;100341.06;4995522;28;20065;-69
2022/05/03 07:59:43;;;;;;;18.77;13.68;;;;;;;16.52;nan;100346.44;4994927;28;19967;-69
2022/05/03 08:02:27;;;;;;;16.20;13.45;;;;;;;16.63;nan;100341.47;4979996;28;20049;-70
2022/05/03 08:05:11;;;;;;;19.48;14.05;;;;;;;16.46;nan;100341.81;4994783;28;20052;-69
2022/05/03 08:07:55;;;;;;;14.98;13.05;;;;;;;16.62;nan;100347.88;4966587;28;20045;-69
2022/05/03 08:10:39;;;;;;;17.75;13.88;;;;;;;16.69;nan;100348.81;4980290;28;20048;-70
2022/05/03 08:13:23;;;;;;;15.50;13.23;;;;;;;16.84;nan;100343.47;4979853;28;20105;-69
2022/05/03 08:16:19;;;;;;;19.10;13.05;;;;;;;16.84;nan;100347.03;4980284;28;20053;-70
2022/05/03 08:19:03;;;;;;;14.27;12.77;;;;;;;17.01;nan;100343.13;4980069;28;20045;-70
2022/05/03 08:21:47;;;;;;;16.55;13.38;;;;;;;17.06;nan;100339.88;4994855;28;20045;-70
2022/05/03 08:24:31;;;;;;;15.40;12.57;;;;;;;17.06;nan;100346.13;4994660;28;20053;-69
2022/05/03 08:27:15;;;;;;;13.85;12.20;;;;;;;17.31;nan;100347.53;4994655;28;20061;-69
2022/05/03 08:29:59;;;;;;;16.52;12.88;;;;;;;17.59;nan;100351.28;4979956;28;20089;-70
2022/05/03 08:32:43;;;;;;;16.83;12.70;;;;;;;17.66;nan;100354.06;4965944;28;20080;-69
2022/05/03 08:35:27;;;;;;;20.42;14.07;;;;;;;17.81;nan;100357.59;4994429;28;20108;-69
2022/05/03 08:44:17;;;;;;;13.77;11.85;;;;;;;18.60;nan;100356.47;4982256;28;20152;-70
2022/05/03 08:47:02;;;;;;;14.77;12.20;;;;;;;18.61;nan;100352.72;4979327;28;20056;-70
2022/05/03 08:50:09;;;;;;;16.85;13.38;;;;;;;18.53;nan;100360.09;4979910;28;20049;-70
2022/05/03 08:53:05;;;;;;;14.95;13.18;;;;;;;18.61;nan;100363.53;4965658;28;20084;-70
2022/05/03 08:55:50;;;;;;;17.63;12.25;;;;;;;18.71;nan;100365.91;4979172;28;20080;-70
2022/05/03 08:58:35;;;;;;;16.70;13.85;;;;;;;18.59;nan;100359.34;4994072;28;20045;-70
2022/05/03 09:01:18;;;;;;;15.10;12.75;;;;;;;18.78;nan;100356.81;4994471;28;20057;-70
2022/05/03 09:04:03;;;;;;;16.85;12.88;;;;;;;18.78;nan;100358.69;4965766;28;20430;-69
2022/05/03 09:06:48;;;;;;;22.45;14.60;;;;;;;18.90;nan;100362.53;4993877;28;20560;-70
2022/05/03 09:09:32;;;;;;;14.20;11.50;;;;;;;19.12;nan;100358.75;4979022;28;20133;-70
2022/05/03 09:12:27;;;;;;;13.27;11.02;;;;;;;19.51;nan;100364.47;4979262;28;20140;-70
2022/05/03 09:15:12;;;;;;;13.45;11.50;;;;;;;19.61;nan;100362.25;4979565;28;20050;-70
2022/05/03 09:17:56;;;;;;;15.38;11.10;;;;;;;19.90;nan;100370.09;4979306;28;20517;-70
2022/05/03 09:24:01;;;;;;;12.70;11.15;;;;;;;20.63;nan;100359.31;4962979;28;20545;-70
2022/05/03 09:26:45;;;;;;;16.15;11.18;;;;;;;20.62;nan;100357.63;4979362;28;20054;-70
2022/05/03 09:29:29;;;;;;;16.40;9.40;;;;;;;20.95;nan;100358.53;4993720;28;20092;-70
2022/05/03 09:32:32;;;;;;;11.43;8.88;;;;;;;21.18;nan;100359.78;4993632;28;20100;-69
2022/05/03 09:35:33;;;;;;;11.85;10.30;;;;;;;21.50;nan;100364.31;4979492;28;20065;-70
2022/05/03 09:38:17;;;;;;;11.00;9.63;;;;;;;21.27;nan;100358.50;4979099;28;20450;-70
2022/05/03 09:41:12;;;;;;;12.75;8.48;;;;;;;21.43;nan;100358.03;4978866;28;20057;-70
2022/05/03 09:44:08;;;;;;;9.63;8.60;;;;;;;21.49;nan;100355.31;4978913;28;20493;-70
2022/05/03 09:46:54;;;;;;;11.35;10.00;;;;;;;21.39;nan;100354.09;4979326;28;20056;-70
2022/05/03 09:49:39;;;;;;;10.98;9.45;;;;;;;21.37;nan;100354.31;4965349;28;20105;-70
2022/05/03 09:52:29;;;;;;;11.98;10.68;;;;;;;21.27;nan;100348.47;4993968;28;20136;-70
2022/05/03 09:55:14;;;;;;;11.68;10.10;;;;;;;21.62;nan;100352.59;4996985;28;20053;-70
2022/05/03 09:58:02;;;;;;;;;;;;;;;22.12;nan;100348.25;4998093;28;20041;-70
2022/05/03 10:00:48;;;;;;;11.60;9.30;;;;;;;23.58;nan;100342.13;4982352;28;19920;-69
2022/05/03 10:03:32;;;;;;;12.10;8.68;;;;;;;25.25;nan;100341.88;4982562;28;20462;-70
2022/05/03 10:06:16;;;;;;;;;;;;;;;25.44;nan;100340.69;4968943;28;20403;-70
2022/05/03 10:09:01;;;;;;;9.30;8.07;;;;;;;25.97;nan;100346.78;4997075;28;19921;-70
2022/05/03 10:11:46;;;;;;;11.95;8.90;;;;;;;27.26;nan;100335.56;4997010;28;20053;-70
2022/05/03 10:14:30;;;;;;;11.45;7.97;;;;;;;27.88;nan;100336.19;4968882;28;20049;-70
2022/05/03 10:20:40;;;;;;;8.82;7.43;;;;;;;29.87;nan;100328.97;4997026;28;20097;-70
2022/05/03 10:23:32;;;;;;;7.70;6.93;;;;;;;30.54;nan;100338.84;4970380;28;20406;-70
2022/05/03 10:26:19;;;;;;;9.13;7.07;;;;;;;31.04;nan;100332.63;4996654;28;20152;-68
2022/05/03 10:29:09;;;;;;;8.90;8.10;;;;;;;31.55;nan;100329.53;4981788;28;20097;-70
2022/05/03 10:32:14;;;;;;;8.45;7.55;;;;;;;31.58;nan;100323.44;4996536;28;20133;-70
2022/05/03 10:35:03;;;;;;;8.63;7.10;;;;;;;32.38;nan;100375.97;4982075;28;20112;-69
2022/05/03 10:37:47;;;;;;;7.82;7.03;;;;;;;32.45;nan;100323.69;4982675;28;20045;-68
2022/05/03 10:40:39;;;;;;;9.00;7.00;;;;;;;32.38;nan;100317.66;4996683;28;20172;-68
2022/05/03 10:43:27;;;;;;;8.07;6.75;;;;;;;32.59;nan;100321.13;4981865;28;20049;-69
2022/05/03 10:46:13;;;;;;;7.25;6.53;;;;;;;30.97;nan;100315.53;4981725;28;20057;-71
2022/05/03 10:49:05;;;;;;;6.72;6.03;;;;;;;32.83;nan;100303.59;4968243;28;20049;-70
2022/05/03 10:51:49;;;;;;;6.97;6.32;;;;;;;32.63;nan;100302.88;4981674;28;20430;-71
2022/05/03 10:55:06;;;;;;;7.25;6.05;;;;;;;34.05;nan;100286.28;4996650;28;20507;-71
2022/05/03 10:58:18;;;;;;;8.80;6.85;;;;;;;34.13;nan;100286.44;4981536;28;20548;-71
2022/05/03 11:01:20;;;;;;;6.83;5.67;;;;;;;34.40;nan;100281.09;4981819;28;20126;-70
2022/05/03 11:04:04;;;;;;;7.82;5.57;;;;;;;36.22;nan;100278.28;4995851;28;20863;-68
2022/05/03 11:06:49;;;;;;;7.30;5.95;;;;;;;35.91;nan;100280.06;4996350;28;20049;-70
2022/05/03 11:09:33;;;;;;;11.93;5.72;;;;;;;33.91;nan;100275.13;4981777;28;20077;-70
2022/05/03 11:12:17;;;;;;;6.35;4.88;;;;;;;36.01;nan;100274.28;4967709;28;20057;-71
2022/05/03 11:15:04;;;;;;;6.72;5.80;;;;;;;35.31;nan;100264.59;4981315;28;20057;-71
2022/05/03 11:17:48;;;;;;;7.05;6.03;;;;;;;35.14;nan;100269.06;4981420;28;20515;-71
2022/05/03 11:20:32;;;;;;;6.53;5.68;;;;;;;36.32;nan;100264.19;4981203;28;20058;-69
2022/05/03 11:23:16;;;;;;;8.60;5.95;;;;;;;36.96;nan;100270.09;4996069;28;20092;-71
2022/05/03 11:26:02;;;;;;;5.93;5.05;;;;;;;38.31;nan;100268.25;4981163;28;20072;-68
2022/05/03 11:28:48;;;;;;;8.25;6.20;;;;;;;35.45;nan;100262.69;4981153;28;20049;-68
2022/05/03 11:31:32;;;;;;;6.95;6.15;;;;;;;36.12;nan;100253.53;4981041;28;20053;-69
2022/05/03 11:34:17;;;;;;;8.70;5.05;;;;;;;37.94;nan;100247.41;4980939;28;20134;-68
2022/05/03 11:37:03;;;;;;;6.25;5.75;;;;;;;35.79;nan;100256.78;4980845;28;20054;-71
2022/05/03 11:39:47;;;;;;;6.57;5.25;;;;;;;37.71;nan;100258.91;4981004;28;20053;-71
2022/05/03 11:42:47;;;;;;;7.20;5.63;;;;;;;35.85;nan;100248.03;4980889;28;20120;-70
2022/05/03 11:45:36;;;;;;;7.85;5.68;;;;;;;36.77;nan;100252.00;4980472;28;20097;-68
2022/05/03 11:48:20;;;;;;;7.07;5.88;;;;;;;36.61;nan;100245.19;4980704;28;20045;-70
2022/05/03 11:57:35;;;;;;;8.57;7.70;;;;;;;38.13;nan;100241.53;4994592;28;20104;-71
2022/05/03 12:00:20;;;;;;;7.55;5.50;;;;;;;38.20;nan;100230.72;4980751;28;20147;-71
2022/05/03 12:03:05;;;;;;;6.07;5.57;;;;;;;35.48;nan;100231.56;4995155;28;20056;-71
2022/05/03 12:06:02;;;;;;;6.55;5.90;;;;;;;33.64;nan;100238.91;4980346;28;20521;-68
2022/05/03 12:08:47;;;;;;;6.65;5.82;;;;;;;36.81;nan;100230.78;4994989;28;20095;-70
2022/05/03 12:11:31;;;;;;;6.18;5.57;;;;;;;36.41;nan;100234.53;4980222;28;20069;-68
2022/05/03 12:14:31;;;;;;;6.82;5.28;;;;;;;36.70;nan;100226.63;4980169;28;20069;-69
2022/05/03 12:17:16;;;;;;;5.95;5.45;;;;;;;36.15;nan;100227.13;4994378;28;20096;-68
2022/05/03 12:20:01;;;;;;;6.65;5.70;;;;;;;35.22;nan;100208.25;4966793;28;20426;-71
2022/05/03 12:22:45;;;;;;;5.80;5.30;;;;;;;35.19;nan;100217.16;4980176;28;20053;-71
2022/05/03 12:25:28;;;;;;;5.47;4.90;;;;;;;37.11;nan;100216.09;4980347;28;20089;-71
2022/05/03 12:28:12;;;;;;;6.18;5.57;;;;;;;35.96;nan;100218.91;4994666;28;20101;-68
2022/05/03 12:30:57;;;;;;;7.63;5.22;;;;;;;35.88;nan;100214.09;4980055;28;20049;-71
2022/05/03 12:33:43;;;;;;;8.65;6.03;;;;;;;36.29;nan;100212.06;4979764;28;20061;-71
2022/05/03 12:36:38;;;;;;;5.85;5.35;;;;;;;37.09;nan;100201.72;4979878;28;20188;-71
2022/05/03 12:39:23;;;;;;;6.05;5.35;;;;;;;38.59;nan;100205.47;4979874;28;20096;-71
2022/05/03 12:42:15;;;;;;;6.97;5.95;;;;;;;37.60;nan;100199.16;4994547;28;20057;-71
2022/05/03 12:44:59;;;;;;;7.07;6.38;;;;;;;36.92;nan;100190.47;4994436;28;20061;-71
2022/05/03 12:47:43;;;;;;;6.85;5.53;;;;;;;35.77;nan;100196.03;4979539;28;20430;-71
2022/05/03 12:50:27;;;;;;;6.50;5.47;;;;;;;37.58;nan;100202.25;4979850;28;20057;-70
2022/05/03 12:53:13;;;;;;;7.45;6.80;;;;;;;37.10;nan;100192.22;4965876;28;20118;-70
2022/05/03 12:55:58;;;;;;;7.28;6.18;;;;;;;36.29;nan;100190.69;4979495;28;20053;-70
2022/05/03 12:59:01;;;;;;;9.63;5.68;;;;;;;36.70;nan;100187.72;4982053;28;20585;-70
2022/05/03 13:01:46;;;;;;;5.78;5.28;;;;;;;36.78;nan;100186.97;4979343;28;20049;-70
2022/05/03 13:04:30;;;;;;;5.85;5.28;;;;;;;36.05;nan;100183.75;4979509;28;20418;-70
2022/05/03 13:07:14;;;;;;;11.48;6.53;;;;;;;34.32;nan;100184.06;4979812;28;20185;-69
2022/05/03 13:09:58;;;;;;;9.93;6.38;;;;;;;32.99;nan;100180.00;4979299;28;20135;-69
2022/05/03 13:12:42;;;;;;;7.07;6.43;;;;;;;32.02;nan;100191.25;4979129;28;20494;-69
2022/05/03 13:15:26;;;;;;;9.65;6.55;;;;;;;31.20;nan;100177.28;4993799;28;20053;-69
2022/05/03 13:18:10;;;;;;;13.32;11.13;;;;;;;31.63;nan;100176.53;4979138;28;20045;-69
2022/05/03 13:20:54;;;;;;;8.88;5.50;;;;;;;32.96;nan;100170.34;4994014;28;20061;-69
2022/05/03 13:23:38;;;;;;;7.18;5.45;;;;;;;31.86;nan;100171.22;4994008;28;20103;-69
2022/05/03 13:26:22;;;;;;;8.93;5.50;;;;;;;31.44;nan;100178.31;4979005;28;20081;-69
2022/05/03 13:29:11;;;;;;;6.60;5.07;;;;;;;30.20;nan;100172.69;4969265;28;20521;-69
2022/05/03 13:31:55;;;;;;;6.40;5.32;;;;;;;29.84;nan;100172.88;4983292;28;20418;-69
2022/05/03 13:34:39;;;;;;;4.68;4.25;;;;;;;30.70;nan;100169.09;4997332;28;20130;-69
2022/05/03 13:40:29;;;;;;;4.82;4.38;;;;;;;30.85;nan;100171.84;4985437;28;20053;-69
2022/05/03 13:43:14;;;;;;;5.30;4.13;;;;;;;30.10;nan;100171.81;4983131;28;20092;-69
2022/05/03 13:45:58;;;;;;;5.30;4.80;;;;;;;29.58;nan;100167.56;4969005;28;20101;-69
2022/05/03 13:48:42;;;;;;;5.47;4.93;;;;;;;29.73;nan;100173.94;4982942;28;20402;-69